createdAt,value
2022-08-29T07:55:21.863Z,16.00
2022-08-29T07:57:51.625Z,16.20
2022-08-29T08:00:19.053Z,16.30
2022-08-29T08:02:46.119Z,16.30
2022-08-29T08:05:12.967Z,16.40
2022-08-29T08:07:40.361Z,16.40
2022-08-29T08:10:08.677Z,16.30
2022-08-29T08:12:35.269Z,16.30
2022-08-29T08:15:03.340Z,16.30
2022-08-29T08:17:30.033Z,16.60
2022-08-29T08:19:56.664Z,16.70
2022-08-29T08:22:23.294Z,16.90
2022-08-29T08:24:50.039Z,17.00
2022-08-29T08:27:16.684Z,17.00
2022-08-29T08:29:44.231Z,17.10
2022-08-29T08:32:11.109Z,17.00
2022-08-29T08:34:37.835Z,16.90
2022-08-29T08:37:08.214Z,16.90
2022-08-29T08:39:35.952Z,16.90
2022-08-29T08:42:20.713Z,16.90
2022-08-29T08:45:09.824Z,17.00
2022-08-29T08:47:45.550Z,17.10
2022-08-29T08:50:18.439Z,17.00
2022-08-29T08:52:53.804Z,17.10
2022-08-29T08:55:42.648Z,17.20
2022-08-29T08:58:30.643Z,17.40
2022-08-29T09:01:04.780Z,17.30
2022-08-29T09:03:53.319Z,17.30
2022-08-29T09:06:57.886Z,17.30
2022-08-29T09:09:38.895Z,17.40
2022-08-29T09:12:38.974Z,17.50
2022-08-29T09:15:16.972Z,17.60
2022-08-29T09:17:48.796Z,17.80
2022-08-29T09:20:23.111Z,17.80
2022-08-29T09:23:03.566Z,18.00
2022-08-29T09:25:31.360Z,17.80
2022-08-29T09:27:58.906Z,17.60
2022-08-29T09:30:29.507Z,17.60
2022-08-29T09:33:02.146Z,17.70
2022-08-29T09:35:42.424Z,17.70
2022-08-29T09:38:18.106Z,17.70
2022-08-29T09:40:47.756Z,17.70
2022-08-29T09:43:27.703Z,17.80
2022-08-29T09:46:08.690Z,17.80
2022-08-29T09:48:37.843Z,17.90
2022-08-29T09:51:15.497Z,17.90
2022-08-29T09:53:43.632Z,18.00
2022-08-29T09:56:17.411Z,18.00
2022-08-29T09:58:44.118Z,18.10
2022-08-29T10:01:18.585Z,18.10
2022-08-29T10:03:55.455Z,18.20
2022-08-29T10:06:25.657Z,18.10
2022-08-29T10:09:09.412Z,18.30
2022-08-29T10:11:57.117Z,18.40
2022-08-29T10:14:35.795Z,18.50
2022-08-29T10:17:22.331Z,18.60
2022-08-29T10:19:49.242Z,18.60
2022-08-29T10:22:41.995Z,18.70
2022-08-29T10:25:11.893Z,18.50
2022-08-29T10:27:57.830Z,18.70
2022-08-29T10:30:32.852Z,18.70
2022-08-29T10:33:21.017Z,18.90
2022-08-29T10:36:01.194Z,18.90
2022-08-29T10:38:47.158Z,19.10
2022-08-29T10:41:33.412Z,19.30
2022-08-29T10:44:26.333Z,19.30
2022-08-29T10:47:30.449Z,19.30
2022-08-29T10:50:27.694Z,19.10
2022-08-29T10:53:16.839Z,19.20
2022-08-29T10:56:06.989Z,19.20
2022-08-29T10:58:42.827Z,19.20
2022-08-29T11:01:17.481Z,19.10
2022-08-29T11:04:07.149Z,19.10
2022-08-29T11:06:53.325Z,19.20
2022-08-29T11:09:28.975Z,19.20
2022-08-29T11:12:17.715Z,19.20
2022-08-29T11:14:56.454Z,19.30
2022-08-29T11:17:29.661Z,19.30
2022-08-29T11:20:02.270Z,19.50
2022-08-29T11:22:37.364Z,19.60
2022-08-29T11:25:15.906Z,19.60
2022-08-29T11:28:04.333Z,19.80
2022-08-29T11:30:58.866Z,19.80
2022-08-29T11:33:45.127Z,19.80
2022-08-29T11:36:41.420Z,20.00
2022-08-29T11:39:30.096Z,20.00
2022-08-29T11:42:01.375Z,20.20
2022-08-29T11:44:36.363Z,20.30
2022-08-29T11:47:41.441Z,20.50
2022-08-29T11:50:14.816Z,20.50
2022-08-29T11:52:54.923Z,20.80
2022-08-29T11:55:26.891Z,20.70
2022-08-29T11:58:01.915Z,20.70
2022-08-29T12:00:41.703Z,20.70
2022-08-29T12:03:33.498Z,21.20
2022-08-29T12:06:22.527Z,21.50
2022-08-29T12:09:15.878Z,21.50
2022-08-29T12:12:08.607Z,21.60
2022-08-29T12:14:38.373Z,21.30
2022-08-29T12:17:51.357Z,21.30
2022-08-29T12:20:34.089Z,21.20
2022-08-29T12:23:06.400Z,20.90
2022-08-29T12:26:15.810Z,21.00
2022-08-29T12:28:46.490Z,21.10
2022-08-29T12:31:51.321Z,20.90
2022-08-29T12:35:00.687Z,21.10
2022-08-29T12:37:46.539Z,21.40
2022-08-29T12:40:21.938Z,21.20
2022-08-29T12:43:08.133Z,21.60
2022-08-29T12:45:36.198Z,21.50
2022-08-29T12:48:15.454Z,21.70
2022-08-29T12:50:45.822Z,21.80
2022-08-29T12:53:27.798Z,21.70
2022-08-29T12:56:01.339Z,22.00
2022-08-29T12:58:38.073Z,21.90
2022-08-29T13:01:21.814Z,22.00
2022-08-29T13:03:57.443Z,22.00
2022-08-29T13:06:24.290Z,21.70
2022-08-29T13:08:51.057Z,21.70
2022-08-29T13:11:22.475Z,22.10
2022-08-29T13:13:49.685Z,22.00
2022-08-29T13:16:26.237Z,22.10
2022-08-29T13:19:10.087Z,22.20
2022-08-29T13:21:37.411Z,22.50
2022-08-29T13:24:10.817Z,22.40
2022-08-29T13:26:43.378Z,22.60
2022-08-29T13:29:29.301Z,22.30
2022-08-29T13:32:24.376Z,22.40
2022-08-29T13:35:19.033Z,22.30
2022-08-29T13:38:06.535Z,21.90
2022-08-29T13:40:41.745Z,21.90
2022-08-29T13:43:31.282Z,21.70
2022-08-29T13:46:14.899Z,21.80
2022-08-29T13:48:42.885Z,21.70
2022-08-29T13:51:10.030Z,21.70
2022-08-29T13:53:37.131Z,22.00
2022-08-29T13:56:04.339Z,22.40
2022-08-29T13:58:31.988Z,22.50
2022-08-29T14:00:59.227Z,22.60
2022-08-29T14:03:25.999Z,22.80
2022-08-29T14:05:56.550Z,22.70
2022-08-29T14:08:24.585Z,22.20
2022-08-29T14:10:52.049Z,22.30
2022-08-29T14:13:18.927Z,22.30
2022-08-29T14:15:45.809Z,22.40
2022-08-29T14:18:12.896Z,22.70
2022-08-29T14:20:39.822Z,23.00
2022-08-29T14:23:06.601Z,22.80
2022-08-29T14:25:33.520Z,22.60
2022-08-29T14:28:00.189Z,22.80
2022-08-29T14:30:26.942Z,23.10
2022-08-29T14:32:53.578Z,23.20
2022-08-29T14:35:26.748Z,23.10
2022-08-29T14:37:58.648Z,23.00
2022-08-29T14:40:25.780Z,23.10
2022-08-29T14:42:52.544Z,23.50
2022-08-29T14:45:19.219Z,23.40
2022-08-29T14:47:47.198Z,23.10
2022-08-29T14:50:15.629Z,22.90
2022-08-29T14:52:42.744Z,23.00
2022-08-29T14:55:10.089Z,23.10
2022-08-29T14:57:37.221Z,22.80
2022-08-29T15:00:11.875Z,22.90
2022-08-29T15:02:39.279Z,23.00
2022-08-29T15:05:06.468Z,23.10
2022-08-29T15:07:33.192Z,23.40
2022-08-29T15:10:00.201Z,23.80
2022-08-29T15:12:30.310Z,24.20
2022-08-29T15:14:56.964Z,24.70
2022-08-29T15:17:24.583Z,24.50
2022-08-29T15:20:34.137Z,24.60
2022-08-29T15:22:39.882Z,25.10
2022-08-29T15:25:07.179Z,25.60
2022-08-29T15:27:33.942Z,26.40
2022-08-29T15:30:00.635Z,27.00
2022-08-29T15:32:27.327Z,25.30
2022-08-29T15:34:54.008Z,24.30
2022-08-29T15:37:22.590Z,24.00
2022-08-29T15:39:54.737Z,23.80
2022-08-29T15:42:28.463Z,23.30
2022-08-29T15:44:55.588Z,23.00
2022-08-29T15:47:25.692Z,22.90
2022-08-29T15:49:53.480Z,23.10
2022-08-29T15:52:20.162Z,23.30
2022-08-29T15:54:46.771Z,23.30
2022-08-29T15:57:13.519Z,23.30
2022-08-29T15:59:57.692Z,23.50
2022-08-29T16:02:26.288Z,23.30
2022-08-29T16:04:56.800Z,23.10
2022-08-29T16:07:29.377Z,22.90
2022-08-29T16:09:56.843Z,22.90
2022-08-29T16:12:23.462Z,22.80
2022-08-29T16:15:09.444Z,22.70
2022-08-29T16:17:37.103Z,22.40
2022-08-29T16:20:05.340Z,22.30
2022-08-29T16:22:33.922Z,22.30
2022-08-29T16:25:01.368Z,22.30
2022-08-29T16:27:27.976Z,22.20
2022-08-29T16:29:55.216Z,22.20
2022-08-29T16:32:21.901Z,22.30
2022-08-29T16:34:48.574Z,22.40
2022-08-29T16:37:15.542Z,22.60
2022-08-29T16:39:42.130Z,22.60
2022-08-29T16:42:12.050Z,22.50
2022-08-29T16:44:39.577Z,22.50
2022-08-29T16:47:06.451Z,22.40
2022-08-29T16:49:33.795Z,22.40
2022-08-29T16:52:00.552Z,22.30
2022-08-29T16:54:27.519Z,22.40
2022-08-29T16:56:55.194Z,22.30
2022-08-29T16:59:22.286Z,22.40
2022-08-29T17:01:51.175Z,22.40
2022-08-29T17:04:24.475Z,22.40
2022-08-29T17:06:52.389Z,22.50
2022-08-29T17:09:21.757Z,22.50
2022-08-29T17:11:49.538Z,22.50
2022-08-29T17:14:18.039Z,22.30
2022-08-29T17:16:46.875Z,22.20
2022-08-29T17:19:15.038Z,22.20
2022-08-29T17:21:42.904Z,22.10
2022-08-29T17:24:10.920Z,22.10
2022-08-29T17:26:40.793Z,22.00
2022-08-29T17:29:08.945Z,21.90
2022-08-29T17:31:38.900Z,21.80
2022-08-29T17:34:07.817Z,21.70
2022-08-29T17:36:36.618Z,21.60
2022-08-29T17:39:05.545Z,21.50
2022-08-29T17:41:33.193Z,21.40
2022-08-29T17:44:01.654Z,21.40
2022-08-29T17:46:29.608Z,21.30
2022-08-29T17:48:56.519Z,21.20
2022-08-29T17:51:23.155Z,21.20
2022-08-29T17:53:50.966Z,21.10
2022-08-29T17:56:25.007Z,21.10
2022-08-29T17:58:51.614Z,21.00
2022-08-29T18:01:18.265Z,20.90
2022-08-29T18:03:45.576Z,20.90
2022-08-29T18:06:14.456Z,20.90
2022-08-29T18:08:42.306Z,20.80
2022-08-29T18:11:14.870Z,20.70
2022-08-29T18:13:41.743Z,20.70
2022-08-29T18:16:09.440Z,20.60
2022-08-29T18:18:37.478Z,20.60
2022-08-29T18:21:04.499Z,20.50
2022-08-29T18:23:31.157Z,20.50
2022-08-29T18:25:57.812Z,20.50
2022-08-29T18:28:24.416Z,20.40
2022-08-29T18:30:54.703Z,20.40
2022-08-29T18:33:21.394Z,20.40
2022-08-29T18:35:48.310Z,20.30
2022-08-29T18:38:15.934Z,20.30
2022-08-29T18:40:42.857Z,20.30
2022-08-29T18:43:10.121Z,20.20
2022-08-29T18:45:39.425Z,20.10
2022-08-29T18:48:06.959Z,20.10
2022-08-29T18:50:36.663Z,20.10
2022-08-29T18:53:24.078Z,20.10
2022-08-29T18:55:53.915Z,20.00
2022-08-29T18:58:26.963Z,20.00
2022-08-29T19:00:54.467Z,19.90
2022-08-29T19:03:21.812Z,19.90
2022-08-29T19:05:50.559Z,19.80
2022-08-29T19:08:24.682Z,19.90
2022-08-29T19:10:55.280Z,19.80
2022-08-29T19:13:22.788Z,19.70
2022-08-29T19:16:01.707Z,19.70
2022-08-29T19:18:28.765Z,19.70
2022-08-29T19:21:06.638Z,19.70
2022-08-29T19:23:40.552Z,19.60
2022-08-29T19:26:13.336Z,19.70
2022-08-29T19:28:41.567Z,19.60
2022-08-29T19:31:08.596Z,19.60
2022-08-29T19:33:36.314Z,19.50
2022-08-29T19:36:05.942Z,19.50
2022-08-29T19:38:32.917Z,19.50
2022-08-29T19:40:59.766Z,19.40
2022-08-29T19:43:29.614Z,19.40
2022-08-29T19:45:57.800Z,19.30
2022-08-29T19:48:26.946Z,19.30
2022-08-29T19:50:54.129Z,19.20
2022-08-29T19:53:26.365Z,19.30
2022-08-29T19:55:55.161Z,19.20
2022-08-29T19:58:23.622Z,19.10
2022-08-29T20:00:58.953Z,19.10
2022-08-29T20:03:27.505Z,19.10
2022-08-29T20:05:55.136Z,19.10
2022-08-29T20:08:21.791Z,19.00
2022-08-29T20:10:49.633Z,19.00
2022-08-29T20:13:17.365Z,18.90
2022-08-29T20:15:44.179Z,18.90
2022-08-29T20:18:10.781Z,18.80
2022-08-29T20:20:39.638Z,18.80
2022-08-29T20:23:07.215Z,18.80
2022-08-29T20:25:34.815Z,18.70
2022-08-29T20:28:02.080Z,18.70
2022-08-29T20:30:31.307Z,18.60
2022-08-29T20:32:57.928Z,18.60
2022-08-29T20:35:43.751Z,18.50
2022-08-29T20:38:10.997Z,18.50
2022-08-29T20:40:39.554Z,18.50
2022-08-29T20:43:06.869Z,18.40
2022-08-29T20:45:33.861Z,18.30
2022-08-29T20:48:01.762Z,18.40
2022-08-29T20:52:55.902Z,18.30
2022-08-29T20:55:22.933Z,18.30
2022-08-29T20:57:49.713Z,18.20
2022-08-29T21:00:17.274Z,18.20
2022-08-29T21:03:02.483Z,18.20
2022-08-29T21:05:42.383Z,18.20
2022-08-29T21:08:16.577Z,18.10
2022-08-29T21:10:44.606Z,18.10
2022-08-29T21:13:11.252Z,18.00
2022-08-29T21:15:39.745Z,18.00
2022-08-29T21:18:07.514Z,18.00
2022-08-29T21:20:54.038Z,17.90
2022-08-29T21:23:22.785Z,17.90
2022-08-29T21:25:57.669Z,17.80
2022-08-29T21:28:25.618Z,17.80
2022-08-29T21:30:52.783Z,17.80
2022-08-29T21:33:20.619Z,17.80
2022-08-29T21:35:50.216Z,17.70
2022-08-29T21:38:17.565Z,17.80
2022-08-29T21:40:50.642Z,17.70
2022-08-29T21:43:19.331Z,17.60
2022-08-29T21:45:46.095Z,17.60
2022-08-29T21:48:12.715Z,17.60
2022-08-29T21:50:39.364Z,17.60
2022-08-29T21:53:05.945Z,17.60
2022-08-29T21:55:33.013Z,17.50
2022-08-29T21:58:00.661Z,17.60
2022-08-29T22:00:33.205Z,17.50
2022-08-29T22:03:05.830Z,17.50
